Time;durP1;ratioP1;P1;durP2;ratioP2;P2;SDS_P1;SDS_P2;PMS_P1;PMS_P2;Temp;Humidity;BMP_temperature;BMP_pressure;BME280_temperature;BME280_humidity;BME280_pressure;Samples;Min_cycle;Max_cycle;Signal;HPM_P1;HPM_P2
2023/06/20 00:02:21;;;;;;;8.40;7.40;;;19.10;64.20;;;;;;5073951;28;20037;-67
2023/06/20 00:04:48;;;;;;;11.55;9.57;;;19.10;64.10;;;;;;5073058;28;20523;-67
2023/06/20 00:07:14;;;;;;;13.98;10.05;;;19.10;64.30;;;;;;5073586;28;20427;-67
2023/06/20 00:09:39;;;;;;;7.97;7.05;;;19.10;64.70;;;;;;5072722;28;20040;-67
2023/06/20 00:12:05;;;;;;;8.27;6.45;;;19.10;64.80;;;;;;5073335;28;20120;-67
2023/06/20 00:14:31;;;;;;;9.43;7.82;;;19.10;64.30;;;;;;5073297;28;20098;-67
2023/06/20 00:16:59;;;;;;;8.30;7.05;;;19.10;64.60;;;;;;5074061;28;20048;-67
2023/06/20 00:19:27;;;;;;;9.35;7.78;;;19.10;64.30;;;;;;5090293;28;20071;-67
2023/06/20 00:21:53;;;;;;;10.02;7.95;;;19.10;64.50;;;;;;5074167;28;20048;-67
2023/06/20 00:24:19;;;;;;;10.63;7.65;;;19.10;64.50;;;;;;5072983;28;20040;-67
2023/06/20 00:26:45;;;;;;;9.88;8.05;;;19.10;64.40;;;;;;5072939;28;20093;-67
2023/06/20 00:29:10;;;;;;;10.05;9.02;;;19.10;64.40;;;;;;5056410;28;20097;-67
2023/06/20 00:31:36;;;;;;;10.52;9.38;;;19.10;65.30;;;;;;5073282;28;20135;-68
2023/06/20 00:34:02;;;;;;;8.73;7.60;;;19.10;65.60;;;;;;5073231;28;20123;-67
2023/06/20 00:36:28;;;;;;;10.10;8.50;;;19.10;65.40;;;;;;5072977;28;20570;-67
2023/06/20 00:38:54;;;;;;;12.20;8.55;;;19.10;65.40;;;;;;5072659;28;20064;-67
2023/06/20 00:41:21;;;;;;;9.45;7.60;;;19.10;65.70;;;;;;5072895;28;20040;-67
2023/06/20 00:43:50;;;;;;;8.32;7.28;;;19.20;65.90;;;;;;5056029;28;20036;-67
2023/06/20 00:46:23;;;;;;;10.10;7.60;;;19.10;65.30;;;;;;5055894;28;20040;-67
2023/06/20 00:48:49;;;;;;;10.43;8.05;;;19.20;65.60;;;;;;5072437;28;20037;-67
2023/06/20 00:51:16;;;;;;;15.60;11.73;;;19.10;65.30;;;;;;5073922;28;20097;-67
2023/06/20 00:53:43;;;;;;;13.27;11.27;;;19.20;66.10;;;;;;5072510;28;20491;-67
2023/06/20 00:56:13;;;;;;;12.15;10.63;;;19.10;66.70;;;;;;5072540;28;20116;-67
2023/06/20 00:58:39;;;;;;;13.43;11.00;;;19.10;67.20;;;;;;5072428;28;20395;-66
2023/06/20 01:01:05;;;;;;;12.40;11.10;;;19.10;67.40;;;;;;5072402;28;20036;-66
2023/06/20 01:03:32;;;;;;;12.95;11.50;;;19.10;67.70;;;;;;5072521;28;20056;-66
2023/06/20 01:06:09;;;;;;;13.68;11.48;;;19.10;68.10;;;;;;5056016;28;20047;-66
2023/06/20 01:08:59;;;;;;;14.27;12.82;;;19.00;68.40;;;;;;5071748;28;20053;-66
2023/06/20 01:11:27;;;;;;;17.88;14.13;;;18.90;68.60;;;;;;5072367;28;20048;-66
2023/06/20 01:14:11;;;;;;;15.05;12.70;;;18.80;69.10;;;;;;5071975;28;20080;-66
2023/06/20 01:16:44;;;;;;;13.43;11.85;;;18.70;69.50;;;;;;5071875;28;20060;-66
2023/06/20 01:19:43;;;;;;;14.93;11.68;;;18.70;69.90;;;;;;5071339;28;20051;-66
2023/06/20 01:22:20;;;;;;;13.07;11.68;;;18.60;69.90;;;;;;5072406;28;20048;-66
2023/06/20 01:24:58;;;;;;;13.85;12.35;;;18.50;70.20;;;;;;5072147;28;20048;-66
2023/06/20 01:27:36;;;;;;;14.75;11.60;;;18.50;70.30;;;;;;5071370;28;20514;-66
2023/06/20 01:30:03;;;;;;;14.77;11.68;;;18.50;70.40;;;;;;5072118;28;20044;-66
2023/06/20 01:32:31;;;;;;;12.68;11.38;;;18.40;70.40;;;;;;5071597;28;20041;-66
2023/06/20 01:35:19;;;;;;;14.15;11.35;;;18.40;70.60;;;;;;5071492;28;20810;-66
2023/06/20 01:37:50;;;;;;;17.33;10.95;;;18.30;70.60;;;;;;5069410;28;20514;-66
2023/06/20 01:40:20;;;;;;;13.65;10.75;;;18.30;70.80;;;;;;5071288;28;20044;-66
2023/06/20 01:42:47;;;;;;;12.57;10.15;;;18.30;71.00;;;;;;5072055;28;20047;-66
2023/06/20 01:45:16;;;;;;;12.88;10.40;;;18.30;70.90;;;;;;5071059;28;20129;-66
2023/06/20 01:47:44;;;;;;;12.77;10.50;;;18.30;71.00;;;;;;5073149;28;20111;-66
2023/06/20 01:50:10;;;;;;;11.30;9.25;;;18.20;70.90;;;;;;5071670;28;20051;-66
2023/06/20 01:52:37;;;;;;;12.07;9.63;;;18.20;70.80;;;;;;5071471;28;20506;-66
2023/06/20 01:55:06;;;;;;;13.30;10.32;;;18.20;70.90;;;;;;5071195;28;20115;-66
2023/06/20 01:57:34;;;;;;;15.00;10.63;;;18.20;70.80;;;;;;5071090;28;20049;-66
2023/06/20 02:00:00;;;;;;;10.73;9.63;;;18.20;70.80;;;;;;5071568;28;20545;-66
2023/06/20 02:02:29;;;;;;;12.63;9.95;;;18.20;70.90;;;;;;5071191;28;20052;-66
2023/06/20 02:04:58;;;;;;;12.77;10.25;;;18.20;71.00;;;;;;5070624;28;20387;-66
2023/06/20 02:07:26;;;;;;;12.57;10.02;;;18.20;71.10;;;;;;5071560;28;20117;-66
2023/06/20 02:09:53;;;;;;;14.02;10.23;;;18.20;71.30;;;;;;5070924;28;20565;-66
2023/06/20 02:12:19;;;;;;;12.40;9.40;;;18.20;71.30;;;;;;5072483;28;20123;-66
2023/06/20 02:14:47;;;;;;;10.65;9.63;;;18.20;71.40;;;;;;5071349;28;20075;-66
2023/06/20 02:17:15;;;;;;;11.57;9.18;;;18.20;71.50;;;;;;5071162;28;20053;-66
2023/06/20 02:19:41;;;;;;;11.50;9.48;;;18.20;71.50;;;;;;5071076;28;20075;-66
2023/06/20 02:22:11;;;;;;;13.48;10.63;;;18.20;71.50;;;;;;5070675;28;20051;-66
2023/06/20 02:24:37;;;;;;;12.73;10.02;;;18.30;71.70;;;;;;5071123;28;20052;-66
2023/06/20 02:27:07;;;;;;;9.85;8.85;;;18.30;71.70;;;;;;5071085;28;20049;-66
2023/06/20 02:29:38;;;;;;;12.85;9.82;;;18.30;71.80;;;;;;5071297;28;20040;-66
2023/06/20 02:32:04;;;;;;;11.18;10.07;;;18.30;71.90;;;;;;5072339;28;20044;-66
2023/06/20 02:34:33;;;;;;;12.23;10.93;;;18.30;72.00;;;;;;5054344;28;20040;-66
2023/06/20 02:37:00;;;;;;;12.18;10.60;;;18.40;72.10;;;;;;5070937;28;20051;-66
2023/06/20 02:39:26;;;;;;;13.77;11.02;;;18.40;72.20;;;;;;5070601;28;20041;-66
2023/06/20 02:41:51;;;;;;;13.75;11.93;;;18.40;72.30;;;;;;5071027;28;20025;-66
2023/06/20 02:44:17;;;;;;;14.57;11.50;;;18.40;72.40;;;;;;5071043;28;20121;-66
2023/06/20 02:47:24;;;;;;;14.05;11.70;;;18.40;72.60;;;;;;5070725;28;20040;-66
2023/06/20 02:50:02;;;;;;;17.67;11.88;;;18.40;72.90;;;;;;5034387;28;20052;-66
2023/06/20 02:52:49;;;;;;;15.32;12.40;;;18.40;72.80;;;;;;5071027;28;20470;-67
2023/06/20 02:55:34;;;;;;;15.88;12.25;;;18.40;73.00;;;;;;5071004;28;20048;-67
2023/06/20 02:58:03;;;;;;;14.45;12.80;;;18.40;73.10;;;;;;5070850;28;20044;-67
2023/06/20 03:00:30;;;;;;;13.02;11.68;;;18.40;73.20;;;;;;5070557;28;20082;-67
2023/06/20 03:03:13;;;;;;;12.73;10.82;;;18.40;73.40;;;;;;5070607;28;20032;-67
2023/06/20 03:05:44;;;;;;;14.43;12.63;;;18.40;74.00;;;;;;5072038;28;20119;-67
2023/06/20 03:08:17;;;;;;;14.60;12.60;;;18.40;73.60;;;;;;5070530;28;20075;-67
2023/06/20 03:10:45;;;;;;;14.38;12.38;;;18.40;73.70;;;;;;5070591;28;20062;-67
2023/06/20 03:13:15;;;;;;;15.15;13.48;;;18.40;73.70;;;;;;5070527;28;20040;-67
2023/06/20 03:15:42;;;;;;;15.52;12.90;;;18.40;73.80;;;;;;5073347;28;20060;-67
2023/06/20 03:18:08;;;;;;;15.07;13.00;;;18.40;73.90;;;;;;5067067;28;20082;-67
2023/06/20 03:20:34;;;;;;;16.77;13.05;;;18.40;73.90;;;;;;5074407;28;20089;-67
2023/06/20 03:23:00;;;;;;;18.15;14.10;;;18.50;74.00;;;;;;5074671;28;20079;-67
2023/06/20 03:25:26;;;;;;;15.13;13.63;;;18.50;74.00;;;;;;5075622;28;20067;-67
2023/06/20 03:27:51;;;;;;;14.27;12.80;;;18.50;74.00;;;;;;5074321;28;20036;-67
2023/06/20 03:30:17;;;;;;;19.55;13.68;;;18.50;74.00;;;;;;5074917;28;20232;-67
2023/06/20 03:32:43;;;;;;;15.32;13.73;;;18.50;73.90;;;;;;5074295;28;20154;-67
2023/06/20 03:35:08;;;;;;;16.33;14.55;;;18.50;73.90;;;;;;5074410;28;20119;-67
2023/06/20 03:37:34;;;;;;;15.52;13.52;;;18.50;73.90;;;;;;5073718;28;20402;-67
2023/06/20 03:40:00;;;;;;;16.13;14.10;;;18.60;73.90;;;;;;5074007;28;20052;-67
2023/06/20 03:42:26;;;;;;;14.85;13.23;;;18.60;74.30;;;;;;5074207;28;20045;-67
2023/06/20 03:44:51;;;;;;;17.08;13.70;;;18.60;73.90;;;;;;5057420;28;20103;-67
2023/06/20 03:47:17;;;;;;;14.70;13.15;;;18.60;73.90;;;;;;5073741;28;20102;-67
2023/06/20 03:49:43;;;;;;;15.90;14.23;;;18.60;73.90;;;;;;5073508;28;20048;-67
2023/06/20 03:52:09;;;;;;;15.43;13.23;;;18.60;73.80;;;;;;5074030;28;20041;-67
2023/06/20 03:54:37;;;;;;;17.25;13.77;;;18.60;73.70;;;;;;5073773;28;20479;-67
2023/06/20 03:57:03;;;;;;;17.23;14.85;;;18.60;73.60;;;;;;5073800;28;20522;-67
2023/06/20 03:59:28;;;;;;;16.08;14.23;;;18.60;73.70;;;;;;5073595;28;20123;-67
2023/06/20 04:01:54;;;;;;;15.07;12.95;;;18.60;73.70;;;;;;5073891;28;20050;-67
2023/06/20 04:04:20;;;;;;;15.57;13.95;;;18.60;73.70;;;;;;5073712;28;20036;-67
2023/06/20 04:06:49;;;;;;;14.48;12.60;;;18.60;73.70;;;;;;5073776;28;20041;-67
2023/06/20 04:09:18;;;;;;;16.55;14.63;;;18.60;73.60;;;;;;5074328;28;20041;-67
2023/06/20 04:11:44;;;;;;;16.27;14.52;;;18.60;73.60;;;;;;5073513;28;20044;-67
2023/06/20 04:14:10;;;;;;;18.55;13.52;;;18.60;73.60;;;;;;5073455;28;20051;-67
2023/06/20 04:16:36;;;;;;;16.42;14.65;;;18.60;73.70;;;;;;5056625;28;20056;-67
2023/06/20 04:19:02;;;;;;;16.00;13.57;;;18.60;73.70;;;;;;5073009;28;20064;-67
2023/06/20 04:21:31;;;;;;;16.50;14.02;;;18.60;73.50;;;;;;5073447;28;20044;-67
2023/06/20 04:23:57;;;;;;;16.00;13.93;;;18.60;73.40;;;;;;5073265;28;20050;-67
2023/06/20 04:26:23;;;;;;;17.13;13.68;;;18.60;73.50;;;;;;5072975;28;20044;-67
2023/06/20 04:28:49;;;;;;;16.17;13.48;;;18.60;73.60;;;;;;5072899;28;20041;-67
2023/06/20 04:31:14;;;;;;;14.73;13.20;;;18.50;73.50;;;;;;5073016;28;20047;-67
2023/06/20 04:33:43;;;;;;;15.15;13.65;;;18.50;73.40;;;;;;5056410;28;20046;-67
2023/06/20 04:36:13;;;;;;;15.35;13.30;;;18.50;73.30;;;;;;5073088;28;20435;-67
2023/06/20 04:38:47;;;;;;;15.48;13.13;;;18.50;73.30;;;;;;5072627;28;20045;-68
2023/06/20 04:41:13;;;;;;;14.30;12.80;;;18.50;73.10;;;;;;5072792;28;20502;-67
2023/06/20 04:43:39;;;;;;;17.98;13.23;;;18.50;73.00;;;;;;5073212;28;20041;-67
2023/06/20 04:46:04;;;;;;;17.30;13.48;;;18.50;73.00;;;;;;5073967;28;20040;-67
2023/06/20 04:48:35;;;;;;;14.60;12.65;;;18.50;73.00;;;;;;5072554;28;20032;-67
2023/06/20 04:51:02;;;;;;;14.98;12.88;;;18.50;72.90;;;;;;5072672;28;20044;-67
2023/06/20 04:53:28;;;;;;;17.83;13.73;;;18.50;72.80;;;;;;5072727;28;20041;-68
2023/06/20 04:55:54;;;;;;;14.35;12.95;;;18.50;72.70;;;;;;5072549;28;20109;-67
2023/06/20 04:58:20;;;;;;;15.80;13.15;;;18.50;72.60;;;;;;5071527;28;20036;-67
2023/06/20 05:00:45;;;;;;;14.13;12.63;;;18.50;72.50;;;;;;5072236;28;20058;-68
2023/06/20 05:03:12;;;;;;;14.95;12.90;;;18.60;72.40;;;;;;5055750;28;20064;-68
2023/06/20 05:05:40;;;;;;;14.98;13.40;;;18.50;72.20;;;;;;5072583;28;20044;-68
2023/06/20 05:08:05;;;;;;;16.25;12.77;;;18.60;72.20;;;;;;5072317;28;20032;-67
2023/06/20 05:10:31;;;;;;;14.10;12.23;;;18.60;72.20;;;;;;5072198;28;20041;-67
2023/06/20 05:12:57;;;;;;;16.10;13.38;;;18.60;72.10;;;;;;5072238;28;20033;-68
2023/06/20 05:15:25;;;;;;;14.00;12.18;;;18.60;72.00;;;;;;5071938;28;20063;-68
2023/06/20 05:17:52;;;;;;;15.30;13.27;;;18.60;72.50;;;;;;5071574;28;20040;-68
2023/06/20 05:20:18;;;;;;;16.50;13.45;;;18.60;72.00;;;;;;5071953;28;20036;-68
2023/06/20 05:22:44;;;;;;;14.05;12.55;;;18.60;72.00;;;;;;5071810;28;20467;-68
2023/06/20 05:25:09;;;;;;;16.50;13.07;;;18.60;71.90;;;;;;5072105;28;20031;-68
2023/06/20 05:27:35;;;;;;;15.63;13.27;;;18.60;71.90;;;;;;5072129;28;20110;-67
2023/06/20 05:30:01;;;;;;;14.73;13.20;;;18.60;71.90;;;;;;5055072;28;20097;-68
2023/06/20 05:32:26;;;;;;;15.38;13.77;;;18.70;71.90;;;;;;5073036;28;20032;-68
2023/06/20 05:34:53;;;;;;;14.93;12.68;;;18.70;71.90;;;;;;5055101;28;20044;-68
2023/06/20 05:37:19;;;;;;;14.00;12.60;;;18.70;71.90;;;;;;5070883;28;20056;-68
2023/06/20 05:39:45;;;;;;;14.20;12.70;;;18.70;71.90;;;;;;5071976;28;20114;-68
2023/06/20 05:42:10;;;;;;;14.32;12.82;;;18.80;71.90;;;;;;5072874;28;20044;-68
2023/06/20 05:44:36;;;;;;;16.52;12.93;;;18.80;72.00;;;;;;5072805;28;20076;-68
2023/06/20 05:47:04;;;;;;;14.52;13.02;;;18.80;72.00;;;;;;5071604;28;20058;-68
2023/06/20 05:49:29;;;;;;;15.05;12.90;;;18.80;72.10;;;;;;5072040;28;20048;-67
2023/06/20 05:51:55;;;;;;;14.93;12.00;;;18.90;72.10;;;;;;5054774;28;20124;-68
2023/06/20 05:54:24;;;;;;;15.25;12.43;;;18.90;72.00;;;;;;5071403;28;20404;-68
2023/06/20 05:56:50;;;;;;;15.77;12.98;;;18.90;71.90;;;;;;5064054;28;20045;-68
2023/06/20 05:59:16;;;;;;;14.70;13.13;;;19.00;71.80;;;;;;5071232;28;20715;-68
2023/06/20 06:01:42;;;;;;;14.57;13.07;;;19.00;71.70;;;;;;5068788;28;20044;-68
2023/06/20 06:04:08;;;;;;;14.48;12.88;;;19.10;71.70;;;;;;5067202;28;20040;-68
2023/06/20 06:06:33;;;;;;;15.55;12.30;;;19.20;72.00;;;;;;5072662;28;20043;-68
2023/06/20 06:08:59;;;;;;;14.18;12.88;;;19.20;71.50;;;;;;5054544;28;20479;-68
2023/06/20 06:11:25;;;;;;;15.02;13.20;;;19.30;71.70;;;;;;5060034;28;20040;-68
2023/06/20 06:13:51;;;;;;;17.73;12.80;;;19.40;71.80;;;;;;5071166;28;20044;-68
2023/06/20 06:16:17;;;;;;;15.50;12.50;;;19.50;71.70;;;;;;5067096;28;20053;-69
2023/06/20 06:18:43;;;;;;;13.77;12.40;;;19.60;71.60;;;;;;5066662;28;20173;-68
2023/06/20 06:21:09;;;;;;;23.25;13.35;;;19.80;71.60;;;;;;5076740;28;20071;-68
2023/06/20 06:23:35;;;;;;;14.40;12.90;;;19.90;71.10;;;;;;5072938;28;20055;-68
2023/06/20 06:26:02;;;;;;;14.05;12.57;;;20.10;71.10;;;;;;5071242;28;20048;-68
2023/06/20 06:28:29;;;;;;;13.48;11.88;;;20.20;70.40;;;;;;5052886;28;20075;-68
2023/06/20 06:30:58;;;;;;;15.35;12.57;;;20.40;70.20;;;;;;5077808;28;20123;-68
2023/06/20 06:33:24;;;;;;;14.73;12.88;;;20.60;69.90;;;;;;5071527;28;20053;-68
2023/06/20 06:35:51;;;;;;;13.35;11.85;;;20.70;69.40;;;;;;5060233;28;20404;-68
2023/06/20 06:38:16;;;;;;;13.38;12.02;;;20.80;69.00;;;;;;5065694;28;20032;-68
2023/06/20 06:40:43;;;;;;;13.88;12.32;;;20.90;68.70;;;;;;5072991;28;20106;-68
2023/06/20 06:43:09;;;;;;;13.93;12.52;;;20.90;68.20;;;;;;5074851;28;20123;-68
2023/06/20 06:45:38;;;;;;;14.02;12.60;;;21.00;68.40;;;;;;5077216;28;20657;-68
2023/06/20 06:48:04;;;;;;;14.55;12.00;;;21.10;68.20;;;;;;5069162;28;20049;-68
2023/06/20 06:50:30;;;;;;;13.48;12.27;;;21.10;67.90;;;;;;5072225;28;20052;-68
2023/06/20 06:52:56;;;;;;;13.40;12.02;;;21.10;67.80;;;;;;5073080;28;20377;-68
2023/06/20 06:55:21;;;;;;;14.55;13.10;;;21.20;67.70;;;;;;5075004;28;20067;-68
2023/06/20 06:57:47;;;;;;;13.57;12.18;;;21.10;67.50;;;;;;5077541;28;20365;-68
2023/06/20 07:00:14;;;;;;;14.80;13.30;;;21.10;67.90;;;;;;5074855;28;20543;-68
2023/06/20 07:02:41;;;;;;;14.00;11.82;;;21.10;67.90;;;;;;5074757;28;20044;-68
2023/06/20 07:05:08;;;;;;;16.65;12.98;;;21.10;67.80;;;;;;5069278;28;20037;-68
2023/06/20 07:07:33;;;;;;;13.93;12.52;;;21.10;67.80;;;;;;5071490;28;20071;-68
2023/06/20 07:09:59;;;;;;;13.63;12.18;;;21.20;68.10;;;;;;5074671;28;20078;-68
2023/06/20 07:12:25;;;;;;;13.68;12.27;;;21.20;68.00;;;;;;5074061;28;20051;-68
2023/06/20 07:14:52;;;;;;;13.07;11.85;;;21.20;67.90;;;;;;5074454;28;20538;-68
2023/06/20 07:17:17;;;;;;;13.73;12.30;;;21.20;68.00;;;;;;5074364;28;20094;-68
2023/06/20 07:19:43;;;;;;;13.65;12.18;;;21.30;68.00;;;;;;5075542;28;20471;-68
2023/06/20 07:22:09;;;;;;;14.57;13.02;;;21.30;68.20;;;;;;5057882;28;20553;-68
2023/06/20 07:24:35;;;;;;;13.85;12.35;;;21.40;68.10;;;;;;5074600;28;20119;-68
2023/06/20 07:27:01;;;;;;;14.02;11.50;;;21.50;68.20;;;;;;5074409;28;20040;-68
2023/06/20 07:29:26;;;;;;;14.02;12.68;;;21.50;68.20;;;;;;5074773;28;20128;-68
2023/06/20 07:31:52;;;;;;;14.00;12.60;;;21.60;67.80;;;;;;5057549;28;20040;-67
2023/06/20 07:34:18;;;;;;;17.73;12.35;;;21.70;67.20;;;;;;5074271;28;20055;-68
2023/06/20 07:36:43;;;;;;;13.60;11.88;;;21.70;67.20;;;;;;5073931;28;20067;-68
2023/06/20 07:39:09;;;;;;;14.32;12.85;;;21.80;67.10;;;;;;5074409;28;20095;-68
2023/06/20 07:41:35;;;;;;;14.95;12.20;;;21.80;67.00;;;;;;5073986;28;20479;-68
2023/06/20 07:44:00;;;;;;;15.40;12.77;;;21.90;66.90;;;;;;5074079;28;20036;-68
2023/06/20 07:46:26;;;;;;;15.25;13.00;;;21.90;66.90;;;;;;5040734;28;20041;-68
2023/06/20 07:48:52;;;;;;;19.10;13.82;;;21.90;66.90;;;;;;5073968;28;20163;-68
2023/06/20 07:51:18;;;;;;;13.98;12.60;;;22.00;66.70;;;;;;5073951;28;20059;-68
2023/06/20 07:53:43;;;;;;;15.75;14.13;;;22.00;66.70;;;;;;5074031;28;20049;-68
2023/06/20 07:56:09;;;;;;;14.07;12.10;;;22.00;66.60;;;;;;5073801;28;20487;-68
2023/06/20 07:58:35;;;;;;;12.63;11.30;;;22.00;66.90;;;;;;5074175;28;20028;-68
2023/06/20 08:01:00;;;;;;;14.35;11.98;;;22.10;67.20;;;;;;5072878;28;20475;-68
2023/06/20 08:03:26;;;;;;;12.20;11.00;;;22.10;66.80;;;;;;5073882;28;20040;-68
2023/06/20 08:05:52;;;;;;;13.10;11.77;;;22.20;66.70;;;;;;5073552;28;20033;-68
2023/06/20 08:08:18;;;;;;;14.13;12.32;;;22.20;66.60;;;;;;5075028;28;20123;-68
2023/06/20 08:10:44;;;;;;;16.38;13.35;;;22.30;66.30;;;;;;5073411;28;20093;-68
2023/06/20 08:13:10;;;;;;;15.63;12.40;;;22.40;66.10;;;;;;5073528;28;20119;-68
2023/06/20 08:15:35;;;;;;;13.30;12.02;;;22.40;65.80;;;;;;5073111;28;20067;-68
2023/06/20 08:18:01;;;;;;;14.30;12.88;;;22.50;65.70;;;;;;5073373;28;20052;-68
2023/06/20 08:20:27;;;;;;;15.13;13.20;;;22.50;65.70;;;;;;5073573;28;20480;-68
2023/06/20 08:22:53;;;;;;;14.93;12.52;;;22.60;65.30;;;;;;5073275;28;20047;-68
2023/06/20 08:25:18;;;;;;;14.43;12.35;;;22.60;65.30;;;;;;5073635;28;20036;-68
2023/06/20 08:27:44;;;;;;;13.68;12.27;;;22.60;65.40;;;;;;5074602;28;20076;-68
2023/06/20 08:30:11;;;;;;;14.77;12.77;;;22.60;64.90;;;;;;5072865;28;20063;-69
2023/06/20 08:32:39;;;;;;;13.45;12.25;;;22.60;64.90;;;;;;5073336;28;20048;-68
2023/06/20 08:35:08;;;;;;;12.98;11.80;;;22.60;64.80;;;;;;5072609;28;20044;-68
2023/06/20 08:37:33;;;;;;;15.73;14.13;;;22.60;65.10;;;;;;5064066;28;20128;-67
2023/06/20 08:39:59;;;;;;;13.95;12.63;;;22.60;65.00;;;;;;5064046;28;20111;-68
2023/06/20 08:42:28;;;;;;;13.88;12.38;;;22.60;65.20;;;;;;5062053;28;20536;-68
2023/06/20 08:44:58;;;;;;;13.20;11.88;;;22.60;65.30;;;;;;5060142;28;20472;-68
2023/06/20 08:47:24;;;;;;;13.60;12.40;;;22.60;65.60;;;;;;5062411;28;20483;-68
2023/06/20 08:49:50;;;;;;;14.05;12.65;;;22.70;65.70;;;;;;5076960;28;20044;-68
2023/06/20 08:52:22;;;;;;;12.98;11.52;;;22.70;65.30;;;;;;5062608;28;20058;-68
2023/06/20 08:54:49;;;;;;;13.70;12.40;;;22.80;66.10;;;;;;5065025;28;20093;-68
2023/06/20 08:57:15;;;;;;;14.18;12.77;;;22.90;66.10;;;;;;5066253;28;20235;-68
2023/06/20 08:59:40;;;;;;;14.13;11.48;;;23.10;65.20;;;;;;5061559;28;20123;-68
2023/06/20 09:02:07;;;;;;;13.48;12.20;;;23.20;65.20;;;;;;5060187;28;20062;-68
2023/06/20 09:04:33;;;;;;;13.38;11.95;;;23.40;64.70;;;;;;5063993;28;20036;-68
2023/06/20 09:07:01;;;;;;;11.52;10.48;;;23.60;63.70;;;;;;5064093;28;20075;-68
2023/06/20 09:09:27;;;;;;;13.18;11.98;;;23.80;62.80;;;;;;5065555;28;20068;-68
2023/06/20 09:11:58;;;;;;;14.13;12.68;;;24.00;63.00;;;;;;5065061;28;20099;-68
2023/06/20 09:14:28;;;;;;;14.60;13.20;;;24.10;61.50;;;;;;5071468;28;20037;-68
2023/06/20 09:16:55;;;;;;;14.27;12.88;;;24.10;60.90;;;;;;5059776;28;20060;-68
2023/06/20 09:19:22;;;;;;;14.80;13.38;;;24.10;61.10;;;;;;5070812;28;20056;-68
2023/06/20 09:21:48;;;;;;;16.58;13.02;;;24.10;61.00;;;;;;5062091;28;20079;-68
2023/06/20 09:24:19;;;;;;;15.40;13.77;;;24.10;61.80;;;;;;5059893;28;20045;-68
2023/06/20 09:26:48;;;;;;;14.45;13.05;;;24.20;61.60;;;;;;5061840;28;20512;-68
2023/06/20 09:29:15;;;;;;;14.90;13.50;;;24.30;61.60;;;;;;5077308;28;20063;-68
2023/06/20 09:31:45;;;;;;;14.00;12.70;;;24.40;61.10;;;;;;5060579;28;20040;-67
2023/06/20 09:34:12;;;;;;;14.32;12.95;;;24.60;61.50;;;;;;5057477;28;20564;-68
2023/06/20 09:36:39;;;;;;;14.38;12.88;;;24.70;61.80;;;;;;5061297;28;20479;-68
2023/06/20 09:39:10;;;;;;;15.25;13.85;;;24.90;61.10;;;;;;5065729;28;20036;-67
2023/06/20 09:41:36;;;;;;;12.85;11.57;;;25.10;60.50;;;;;;5063153;28;20043;-67
2023/06/20 09:44:01;;;;;;;13.13;11.93;;;25.20;59.90;;;;;;5063697;28;20045;-67
2023/06/20 09:46:28;;;;;;;15.65;11.98;;;25.40;59.50;;;;;;5063357;28;20044;-68
2023/06/20 09:48:54;;;;;;;13.80;12.60;;;25.50;59.10;;;;;;5062234;28;20036;-67
2023/06/20 09:51:21;;;;;;;14.02;12.45;;;25.70;58.50;;;;;;5063077;28;20495;-67
2023/06/20 09:53:58;;;;;;;13.95;12.75;;;25.80;58.30;;;;;;5061225;28;20079;-68
2023/06/20 09:56:26;;;;;;;13.93;12.45;;;25.90;57.80;;;;;;5062444;28;20048;-68
2023/06/20 09:58:57;;;;;;;12.55;11.30;;;26.10;58.20;;;;;;5064863;28;20067;-68
2023/06/20 10:01:25;;;;;;;13.00;11.70;;;26.20;58.30;;;;;;5070348;28;20499;-68
2023/06/20 10:03:52;;;;;;;13.23;12.02;;;26.40;57.80;;;;;;5070918;28;20041;-68
2023/06/20 10:06:20;;;;;;;12.85;11.57;;;26.50;56.70;;;;;;5079585;28;20439;-68
2023/06/20 10:08:47;;;;;;;11.95;10.45;;;26.60;56.80;;;;;;5063062;28;20119;-68
2023/06/20 10:11:13;;;;;;;12.20;10.95;;;26.60;57.20;;;;;;5064557;28;20499;-67
2023/06/20 10:13:40;;;;;;;10.73;9.70;;;26.70;56.30;;;;;;5065725;28;20085;-67
2023/06/20 10:16:06;;;;;;;9.95;9.05;;;26.80;55.70;;;;;;5063192;28;20045;-67
2023/06/20 10:18:32;;;;;;;10.23;9.32;;;26.80;56.00;;;;;;5062740;28;20045;-68
2023/06/20 10:21:01;;;;;;;11.27;10.25;;;26.90;56.40;;;;;;5060783;28;20487;-68
2023/06/20 10:23:31;;;;;;;9.23;8.35;;;27.00;56.60;;;;;;5061723;28;20119;-67
2023/06/20 10:25:58;;;;;;;9.85;8.93;;;27.20;55.70;;;;;;5060321;28;20147;-67
2023/06/20 10:28:25;;;;;;;9.88;8.98;;;27.30;55.20;;;;;;5061555;28;20045;-67
2023/06/20 10:30:53;;;;;;;8.90;8.10;;;27.50;54.80;;;;;;5060128;28;20039;-67
2023/06/20 10:33:29;;;;;;;7.80;6.68;;;27.60;54.90;;;;;;5063012;28;20033;-67
2023/06/20 10:36:06;;;;;;;9.00;7.05;;;27.80;52.90;;;;;;5045022;28;20024;-67
2023/06/20 10:38:37;;;;;;;8.45;7.18;;;27.90;52.40;;;;;;5081396;28;20036;-67
2023/06/20 10:41:14;;;;;;;7.35;6.65;;;27.90;52.30;;;;;;5081943;28;20398;-67
2023/06/20 10:43:55;;;;;;;10.23;7.68;;;28.00;52.80;;;;;;5081561;28;20170;-65
2023/06/20 10:46:42;;;;;;;6.97;6.30;;;28.20;52.00;;;;;;5082400;28;20486;-65
2023/06/20 10:49:09;;;;;;;6.95;6.18;;;28.30;51.40;;;;;;5081592;28;20109;-65
2023/06/20 10:51:44;;;;;;;7.18;6.55;;;28.40;50.40;;;;;;5083525;28;20599;-65
2023/06/20 10:54:11;;;;;;;8.07;6.47;;;28.40;51.10;;;;;;5080669;28;20127;-65
2023/06/20 10:56:36;;;;;;;9.50;7.60;;;28.50;50.60;;;;;;5080925;28;20368;-65
2023/06/20 10:59:09;;;;;;;7.97;7.25;;;28.60;49.90;;;;;;5083002;28;20054;-65
2023/06/20 11:01:35;;;;;;;7.65;6.90;;;28.60;49.90;;;;;;5081668;28;20123;-65
2023/06/20 11:04:05;;;;;;;7.07;6.38;;;28.50;49.90;;;;;;5083074;28;20036;-65
2023/06/20 11:06:32;;;;;;;7.03;6.38;;;28.60;49.50;;;;;;5082900;28;20185;-65
2023/06/20 11:08:58;;;;;;;6.78;6.18;;;28.60;49.90;;;;;;5082169;28;20036;-65
2023/06/20 11:11:39;;;;;;;7.05;6.35;;;28.60;49.60;;;;;;5084977;28;20052;-65
2023/06/20 11:14:17;;;;;;;7.72;6.07;;;28.70;49.00;;;;;;5081779;28;20050;-65
2023/06/20 11:16:43;;;;;;;7.57;6.88;;;28.80;49.30;;;;;;5081392;28;20083;-65
2023/06/20 11:19:09;;;;;;;6.28;5.50;;;28.80;48.70;;;;;;5084531;28;20055;-65
2023/06/20 11:21:35;;;;;;;6.97;5.30;;;28.80;49.10;;;;;;5084616;28;20036;-65
2023/06/20 11:24:03;;;;;;;7.07;6.38;;;28.90;48.70;;;;;;5082201;28;20043;-64
2023/06/20 11:26:30;;;;;;;6.53;5.90;;;28.90;47.80;;;;;;5084837;28;20043;-65
2023/06/20 11:28:59;;;;;;;7.57;6.18;;;29.00;47.90;;;;;;5081771;28;20532;-65
2023/06/20 11:31:25;;;;;;;8.95;7.22;;;29.00;47.40;;;;;;5082309;28;20036;-64
2023/06/20 11:34:03;;;;;;;7.53;6.82;;;29.10;46.80;;;;;;5082264;28;20039;-64
2023/06/20 11:36:32;;;;;;;7.22;6.50;;;29.10;46.60;;;;;;5086041;28;20040;-64
2023/06/20 11:39:11;;;;;;;6.57;5.97;;;29.20;47.10;;;;;;5086878;28;20044;-66
2023/06/20 11:41:37;;;;;;;5.55;4.97;;;29.30;47.10;;;;;;5086437;28;20040;-67
2023/06/20 11:44:04;;;;;;;8.20;6.72;;;29.30;46.40;;;;;;5084760;28;20379;-68
2023/06/20 11:46:30;;;;;;;6.90;6.25;;;29.40;46.50;;;;;;5088339;28;20043;-68
2023/06/20 11:48:56;;;;;;;7.45;6.75;;;29.40;46.50;;;;;;5086262;28;20134;-68
2023/06/20 11:51:24;;;;;;;7.53;6.75;;;29.50;46.10;;;;;;5087510;28;20040;-68
2023/06/20 11:54:12;;;;;;;8.85;6.20;;;29.60;46.00;;;;;;5085999;28;20428;-68
2023/06/20 11:56:38;;;;;;;6.57;5.97;;;29.70;46.10;;;;;;5087188;28;20483;-68
2023/06/20 11:59:04;;;;;;;6.95;6.22;;;29.60;45.90;;;;;;5084457;28;20033;-65
2023/06/20 12:01:32;;;;;;;8.52;6.88;;;29.60;46.00;;;;;;5084601;28;20024;-65
2023/06/20 12:04:12;;;;;;;11.77;6.97;;;29.50;45.60;;;;;;5086697;28;20057;-65
2023/06/20 12:06:45;;;;;;;7.65;6.80;;;29.50;45.90;;;;;;5084148;28;20048;-65
2023/06/20 12:09:13;;;;;;;6.68;5.95;;;29.40;45.60;;;;;;5084616;28;20055;-65
2023/06/20 12:11:55;;;;;;;7.80;7.00;;;29.40;45.70;;;;;;5067699;28;20132;-65
2023/06/20 12:14:25;;;;;;;6.67;5.97;;;29.30;45.60;;;;;;5083505;28;20040;-66
2023/06/20 12:16:55;;;;;;;5.65;5.15;;;29.40;45.80;;;;;;5084902;28;20044;-65
2023/06/20 12:19:21;;;;;;;6.80;6.05;;;29.50;46.20;;;;;;5065944;28;20071;-66
2023/06/20 12:21:48;;;;;;;7.07;6.38;;;29.60;45.50;;;;;;5084602;28;20075;-66
2023/06/20 12:24:15;;;;;;;7.38;6.68;;;29.70;45.80;;;;;;5083100;28;20118;-66
2023/06/20 12:26:46;;;;;;;6.93;6.20;;;29.70;45.40;;;;;;5084581;28;20483;-66
2023/06/20 12:29:12;;;;;;;6.75;5.68;;;29.70;45.40;;;;;;5084251;28;20059;-66
2023/06/20 12:31:39;;;;;;;6.00;5.40;;;29.70;45.60;;;;;;5084341;28;20073;-66
2023/06/20 12:34:05;;;;;;;7.90;5.57;;;29.70;45.60;;;;;;5066086;28;20036;-66
2023/06/20 12:36:32;;;;;;;6.88;6.10;;;29.70;46.00;;;;;;5082285;28;20089;-65